Aérodrome :
LOGIN :

S'inscrire | Disclaimer

   EN    FR    IT 

 










Légende :    VFR   VFR Marginal   IFR   IFR Intensif   IFR Très Intensif
Visi : 
Plafond : 
>= 8 km
>= 3000ft
5 à 8 km
1000 à 3000 ft
1500m à 5 km
500 à 1000 ft
800 à 1500m
200 à 500 ft
< 800m
< 200 ft
Symboles :   Orages  Brouillard  Fortes neiges  Fortes précipitations  Vent > 20 kt
SIGMETs :   Divers  Orages  Givrage  Turbulence  Onde Orograph.  Cendres Volcan.







- Altitude de l'aérodrome : 856 ft
- Code IATA : VGO


LEVX - Vigo Peinador

DERNIER METAR :
  • 171700Z 27012KT CAVOK 23/16 Q1021 NOSIG

METARs EXPIRÉS :
  • 171630Z 27011KT 240V320 CAVOK 24/16 Q1021 NOSIG
  • 171600Z 28012KT 240V300 CAVOK 24/16 Q1021 NOSIG
  • 171530Z 27012KT 230V310 CAVOK 24/17 Q1021 NOSIG
  • 171500Z 27011KT 240V300 CAVOK 25/17 Q1021 NOSIG
  • 171430Z 27011KT 230V300 CAVOK 25/17 Q1021 NOSIG

TAF TAF LEVX
Valide du 17 à 12h jusqu'au 18 à 12h UTC


171100Z 1712/1812 VRB04KT CAVOK TX29/1714Z TN17/1804Z
BECMG 1712/1714 27010KT
BECMG 1718/1720 VRB04KT
PROB30
TEMPO 1722/1809 3000 BR BKN010
Pas de NOTAMs connus pour ce terrain.



MET'MAP, la Météo Aéronautique d'un coup d'oeil ! - Copyright ORBIFLY Décembre 2007 - Disclaimer

ORBIFLY MET'MAP TEAM :

Programmation & Développement : Alexandra Zaïnal
Conception & Développement : Baudouin d'Aumeries
Co-Programmation & Développement : Marc-Olivier Méhu
Soutien technique & logistique : Manuel Goepfert

Contact : metmap@orbifly.com




SOURCES & CREDITS :

   NOAA